Terminal Aerodrome Forecast
Issued by NWS

Current Version | Previous Version | Text Only | Print | Product List | Glossary On
Versions: 1 2 3 4 5 6 7 8 9 10 11 12 13 14 15
000 FTUS41 KILN 251736 TAFLUK TAF KLUK 251736Z 2518/2618 19010KT P6SM SCT050 SCT100 BKN250 FM260100 19003KT P6SM FEW100 BKN250 FM260400 00000KT P6SM VCSH BKN040 BKN080 FM260900 00000KT 3SM BR SCT040 SCT250 FM261300 20005KT P6SM SCT040 SCT250 FM261500 23010KT P6SM SCT040=

USA.gov is the U.S. government's official web portal to all federal, state and local government web resources and services.